Time;durP1;ratioP1;P1;durP2;ratioP2;P2;SDS_P1;SDS_P2;PMS_P1;PMS_P2;Temp;Humidity;BMP_temperature;BMP_pressure;BME280_temperature;BME280_humidity;BME280_pressure;Samples;Min_cycle;Max_cycle;Signal;HPM_P1;HPM_P2
2022/06/16 00:01:32;;;;;;;8.50;4.05;;;11.70;99.90;;;;;;5077034;28;20021;-72
2022/06/16 00:03:59;;;;;;;8.50;4.20;;;11.60;99.90;;;;;;5075452;28;20029;-72
2022/06/16 00:06:24;;;;;;;18.08;5.03;;;11.70;99.90;;;;;;5076825;28;20392;-72
2022/06/16 00:08:50;;;;;;;7.75;4.68;;;11.70;99.90;;;;;;5076875;28;20027;-72
2022/06/16 00:11:19;;;;;;;8.95;4.35;;;11.70;99.90;;;;;;5077017;28;20025;-72
2022/06/16 00:13:47;;;;;;;10.23;4.78;;;11.70;99.90;;;;;;5076776;28;20100;-72
2022/06/16 00:16:13;;;;;;;15.02;9.02;;;11.70;99.90;;;;;;5075220;28;20028;-72
2022/06/16 00:18:39;;;;;;;18.42;10.23;;;11.60;99.90;;;;;;5076483;28;20540;-72
2022/06/16 00:21:06;;;;;;;12.38;8.70;;;11.60;99.90;;;;;;5076766;28;20130;-72
2022/06/16 00:23:32;;;;;;;21.85;10.85;;;11.60;99.90;;;;;;5075094;28;20481;-72
2022/06/16 00:25:57;;;;;;;15.95;9.10;;;11.60;99.90;;;;;;5076607;28;20082;-72
2022/06/16 00:28:24;;;;;;;19.80;8.18;;;11.60;99.90;;;;;;5076309;28;20099;-72
2022/06/16 00:30:49;;;;;;;16.15;10.93;;;11.60;99.90;;;;;;5076434;28;20036;-72
2022/06/16 00:33:15;;;;;;;33.63;26.45;;;11.60;99.90;;;;;;5076130;28;20021;-72
2022/06/16 00:35:41;;;;;;;56.00;45.65;;;11.50;99.90;;;;;;5071553;22;20073;-64
2022/06/16 00:38:06;;;;;;;58.47;45.05;;;11.50;99.90;;;;;;5036121;28;20017;-65
2022/06/16 00:40:32;;;;;;;59.50;44.20;;;11.50;99.90;;;;;;5035988;28;20041;-65
2022/06/16 00:42:58;;;;;;;52.35;41.47;;;11.50;99.90;;;;;;5035755;28;20025;-65
2022/06/16 00:45:52;;;;;;;57.95;44.03;;;11.40;99.90;;;;;;5035905;28;20030;-65
2022/06/16 00:48:43;;;;;;;49.15;40.10;;;11.50;99.90;;;;;;5035883;28;20029;-65
2022/06/16 00:51:24;;;;;;;59.05;46.72;;;11.40;99.90;;;;;;5034012;28;20123;-65
2022/06/16 00:53:51;;;;;;;61.15;47.35;;;11.40;99.90;;;;;;5035815;28;20028;-65
2022/06/16 00:56:19;;;;;;;48.25;33.38;;;11.40;99.90;;;;;;5035426;28;20021;-65
2022/06/16 00:58:48;;;;;;;70.72;52.75;;;11.30;99.90;;;;;;5035716;28;20033;-65
2022/06/16 01:01:20;;;;;;;51.17;38.15;;;11.30;99.90;;;;;;5026548;28;20036;-65
2022/06/16 01:06:30;;;;;;;42.95;31.85;;;11.20;99.90;;;;;;5015392;28;20204;-65
2022/06/16 01:09:03;;;;;;;45.17;32.42;;;11.20;99.90;;;;;;5015668;28;20473;-66
2022/06/16 01:15:00;;;;;;;56.15;41.70;;;11.20;99.90;;;;;;5015863;28;20025;-65
2022/06/16 01:17:47;;;;;;;58.78;42.42;;;11.00;99.90;;;;;;5013366;28;20493;-65
2022/06/16 01:20:19;;;;;;;76.20;57.13;;;11.00;99.90;;;;;;5008607;28;20444;-65
2022/06/16 01:23:24;;;;;;;85.10;60.57;;;11.00;99.90;;;;;;5035159;28;20034;-65
2022/06/16 01:26:20;;;;;;;90.32;65.00;;;11.00;99.90;;;;;;5034979;28;20029;-65
2022/06/16 01:29:23;;;;;;;92.55;64.90;;;11.00;99.90;;;;;;5035095;28;20553;-65
2022/06/16 01:32:00;;;;;;;82.85;56.15;;;10.90;99.90;;;;;;5034836;28;20030;-65
2022/06/16 01:34:40;;;;;;;71.72;49.70;;;10.90;99.90;;;;;;5034682;28;20037;-65
2022/06/16 01:37:18;;;;;;;61.72;39.85;;;10.90;99.90;;;;;;5035038;28;20491;-65
2022/06/16 01:40:02;;;;;;;43.60;31.13;;;10.90;99.90;;;;;;5034918;28;20032;-65
2022/06/16 01:42:44;;;;;;;36.95;26.55;;;10.90;99.90;;;;;;5034641;28;20371;-65
2022/06/16 01:45:27;;;;;;;34.72;25.38;;;10.90;99.90;;;;;;5034845;28;20028;-66
2022/06/16 01:47:52;;;;;;;45.85;33.00;;;10.90;99.90;;;;;;5034401;28;20021;-66
2022/06/16 01:50:48;;;;;;;38.90;28.50;;;10.80;99.90;;;;;;5034360;28;20087;-66
2022/06/16 01:53:43;;;;;;;56.60;37.80;;;10.80;99.90;;;;;;5024919;28;20433;-66
2022/06/16 01:56:25;;;;;;;50.75;35.75;;;10.80;99.90;;;;;;5033084;28;20037;-66
2022/06/16 01:59:04;;;;;;;48.83;33.60;;;10.80;99.90;;;;;;5034506;28;20030;-66
2022/06/16 02:01:35;;;;;;;38.05;29.08;;;10.70;99.90;;;;;;5034487;28;20104;-66
2022/06/16 02:04:07;;;;;;;37.35;26.30;;;10.80;99.90;;;;;;5034115;28;20107;-65
2022/06/16 02:06:38;;;;;;;35.58;25.27;;;10.80;99.90;;;;;;5035032;28;20359;-65
2022/06/16 02:09:12;;;;;;;46.80;35.38;;;10.70;99.90;;;;;;5034379;28;20032;-65
2022/06/16 02:11:40;;;;;;;67.82;40.30;;;10.70;99.90;;;;;;5034303;28;20160;-65
2022/06/16 02:14:30;;;;;;;48.00;33.90;;;10.70;99.90;;;;;;5033937;28;20029;-65
2022/06/16 02:16:56;;;;;;;40.88;29.40;;;10.70;99.90;;;;;;5034017;28;20037;-65
2022/06/16 02:19:24;;;;;;;43.40;29.38;;;10.70;99.90;;;;;;5034221;28;20029;-65
2022/06/16 02:21:51;;;;;;;38.83;28.42;;;10.70;99.90;;;;;;5033903;28;20025;-66
2022/06/16 02:24:25;;;;;;;41.70;27.50;;;10.60;99.90;;;;;;5033558;28;20112;-66
2022/06/16 02:26:54;;;;;;;37.28;27.75;;;10.60;99.90;;;;;;5033497;28;20408;-66
2022/06/16 02:29:20;;;;;;;37.65;27.88;;;10.60;99.90;;;;;;5033687;28;20025;-66
2022/06/16 02:31:57;;;;;;;37.47;27.00;;;10.60;99.90;;;;;;5033540;28;20477;-65
2022/06/16 02:34:35;;;;;;;37.58;25.92;;;10.60;99.90;;;;;;5033534;28;20025;-65
2022/06/16 02:37:38;;;;;;;37.33;26.25;;;10.60;99.90;;;;;;5033652;28;20037;-65
2022/06/16 02:40:12;;;;;;;56.53;31.58;;;10.60;99.90;;;;;;5033342;28;20076;-65
2022/06/16 02:42:56;;;;;;;28.27;21.95;;;10.60;99.90;;;;;;5033541;28;20036;-65
2022/06/16 02:45:51;;;;;;;31.45;22.27;;;10.60;99.90;;;;;;5016020;28;20439;-65
2022/06/16 02:48:26;;;;;;;33.42;23.05;;;10.60;99.90;;;;;;5014110;28;20424;-65
2022/06/16 02:50:55;;;;;;;30.25;22.30;;;10.50;99.90;;;;;;5013878;28;20026;-65
2022/06/16 02:53:45;;;;;;;36.08;24.38;;;10.60;99.90;;;;;;5013541;28;20032;-66
2022/06/16 02:56:29;;;;;;;38.60;26.15;;;10.50;99.90;;;;;;5013695;28;20444;-65
2022/06/16 02:58:58;;;;;;;39.92;27.95;;;10.50;99.90;;;;;;5013991;28;20486;-65
2022/06/16 03:01:25;;;;;;;39.58;27.27;;;10.50;99.90;;;;;;5013645;28;20022;-65
2022/06/16 03:04:06;;;;;;;39.88;28.08;;;10.50;99.90;;;;;;5013672;28;20061;-65
2022/06/16 03:06:33;;;;;;;32.47;24.17;;;10.50;99.90;;;;;;4994136;28;20022;-65
2022/06/16 03:08:59;;;;;;;31.45;23.27;;;10.50;99.90;;;;;;4994183;28;20101;-65
2022/06/16 03:11:25;;;;;;;35.20;24.85;;;10.40;99.90;;;;;;4993943;28;20098;-65
2022/06/16 03:13:50;;;;;;;36.35;24.27;;;10.40;99.90;;;;;;5003262;28;20104;-65
2022/06/16 03:16:16;;;;;;;34.63;23.92;;;10.40;99.90;;;;;;5037296;28;20363;-65
2022/06/16 03:18:42;;;;;;;33.13;23.15;;;10.40;99.90;;;;;;5037713;28;20026;-65
2022/06/16 03:21:08;;;;;;;32.28;22.75;;;10.40;99.90;;;;;;5037334;28;20041;-65
2022/06/16 03:23:34;;;;;;;35.08;22.83;;;10.50;99.90;;;;;;5037503;28;20037;-65
2022/06/16 03:26:00;;;;;;;30.90;21.90;;;10.40;99.90;;;;;;5037488;28;20398;-65
2022/06/16 03:28:27;;;;;;;27.13;20.65;;;10.50;99.90;;;;;;5037493;28;20107;-65
2022/06/16 03:30:53;;;;;;;35.15;20.55;;;10.40;99.90;;;;;;5037102;28;20036;-65
2022/06/16 03:33:19;;;;;;;22.77;17.38;;;10.50;99.90;;;;;;5037316;28;20047;-65
2022/06/16 03:35:45;;;;;;;30.02;19.05;;;10.50;99.90;;;;;;5036990;28;20036;-65
2022/06/16 03:38:23;;;;;;;24.20;16.08;;;10.50;99.90;;;;;;5036988;28;20021;-65
2022/06/16 03:40:48;;;;;;;21.35;15.45;;;10.50;99.90;;;;;;5036992;28;20466;-65
2022/06/16 03:43:14;;;;;;;22.08;15.98;;;10.60;99.90;;;;;;5037074;28;20025;-65
2022/06/16 03:45:40;;;;;;;20.20;14.90;;;10.60;99.90;;;;;;5036840;28;20065;-65
2022/06/16 03:48:06;;;;;;;18.67;13.32;;;10.60;99.90;;;;;;5036986;28;20104;-65
2022/06/16 03:50:31;;;;;;;16.70;12.27;;;10.60;99.90;;;;;;5036658;28;20025;-65
2022/06/16 03:52:57;;;;;;;17.08;11.35;;;10.60;99.90;;;;;;5036812;28;20022;-65
2022/06/16 03:55:23;;;;;;;22.13;13.52;;;10.70;99.90;;;;;;5036861;28;20025;-65
2022/06/16 03:57:49;;;;;;;14.80;11.18;;;10.70;99.90;;;;;;5036852;28;20018;-65
2022/06/16 04:00:15;;;;;;;24.65;12.52;;;10.80;99.90;;;;;;5036827;28;20033;-65
2022/06/16 04:02:41;;;;;;;13.70;9.73;;;10.80;99.90;;;;;;5036698;28;20452;-65
2022/06/16 04:05:08;;;;;;;19.65;9.65;;;10.80;99.90;;;;;;5036433;28;20060;-65
2022/06/16 04:07:36;;;;;;;12.52;8.20;;;10.90;99.90;;;;;;5036636;28;20113;-65
2022/06/16 04:10:04;;;;;;;13.90;8.57;;;10.90;99.90;;;;;;5036508;28;20071;-64
2022/06/16 04:12:30;;;;;;;14.57;8.60;;;10.90;99.90;;;;;;5037380;28;20030;-64
2022/06/16 04:14:56;;;;;;;16.70;8.88;;;11.00;99.90;;;;;;5036170;28;20038;-64
2022/06/16 04:17:21;;;;;;;13.88;8.88;;;10.80;99.90;;;;;;5036547;28;20096;-64
2022/06/16 04:22:32;;;;;;;;;;;11.00;99.90;;;;;;5036631;28;20080;-64
2022/06/16 04:24:57;;;;;;;14.07;7.22;;;11.00;99.90;;;;;;5035786;28;20292;-64
2022/06/16 04:27:23;;;;;;;11.10;6.85;;;11.10;99.90;;;;;;5036041;28;20026;-64
2022/06/16 04:29:51;;;;;;;15.30;8.40;;;11.20;99.90;;;;;;5035906;28;20055;-64
2022/06/16 04:32:17;;;;;;;10.18;6.90;;;11.20;99.90;;;;;;5035977;28;20032;-64
2022/06/16 04:34:43;;;;;;;12.68;6.60;;;11.30;99.90;;;;;;5036004;28;20033;-64
2022/06/16 04:37:10;;;;;;;13.27;6.65;;;11.40;99.90;;;;;;5036120;28;20025;-64
2022/06/16 04:39:36;;;;;;;11.25;6.68;;;11.50;99.90;;;;;;5035806;28;20084;-65
2022/06/16 04:42:03;;;;;;;12.23;8.63;;;11.60;99.90;;;;;;5034573;28;20025;-65
2022/06/16 04:44:28;;;;;;;22.05;10.55;;;11.70;99.90;;;;;;5035886;28;20026;-65
2022/06/16 04:46:54;;;;;;;18.25;7.72;;;11.80;99.90;;;;;;5035684;28;20044;-65
2022/06/16 04:49:20;;;;;;;16.27;7.72;;;11.90;99.90;;;;;;5035578;28;20029;-65
2022/06/16 04:51:45;;;;;;;14.77;7.10;;;11.90;99.90;;;;;;5035476;28;20025;-65
2022/06/16 04:54:11;;;;;;;11.88;6.57;;;12.10;99.90;;;;;;5035641;28;20032;-65
2022/06/16 04:56:37;;;;;;;14.90;6.78;;;12.20;99.90;;;;;;5035494;28;20021;-65
2022/06/16 04:59:03;;;;;;;15.18;7.30;;;12.30;99.90;;;;;;5035916;28;20021;-65
2022/06/16 05:01:28;;;;;;;8.05;5.32;;;12.40;99.90;;;;;;5035642;28;20461;-65
2022/06/16 05:03:54;;;;;;;15.73;6.13;;;12.60;99.90;;;;;;5035352;28;20025;-65
2022/06/16 05:06:19;;;;;;;11.00;5.25;;;12.80;99.90;;;;;;5035297;28;20028;-65
2022/06/16 05:08:45;;;;;;;9.88;4.90;;;13.00;99.90;;;;;;5035224;28;20026;-65
2022/06/16 05:11:11;;;;;;;20.25;5.45;;;13.10;99.90;;;;;;5035690;28;20419;-65
2022/06/16 05:13:36;;;;;;;11.68;5.40;;;13.20;99.90;;;;;;5035365;28;20034;-66
2022/06/16 05:16:02;;;;;;;10.15;4.65;;;13.40;99.90;;;;;;5035143;28;20026;-66
2022/06/16 05:18:28;;;;;;;9.45;4.25;;;13.60;99.90;;;;;;5035285;28;20048;-65
2022/06/16 05:21:07;;;;;;;6.13;3.97;;;13.80;99.90;;;;;;5035306;28;20060;-65
2022/06/16 05:23:32;;;;;;;15.57;4.28;;;13.90;99.90;;;;;;5035818;28;20339;-65
2022/06/16 05:25:58;;;;;;;13.82;4.40;;;14.00;99.90;;;;;;5035077;28;20032;-65
2022/06/16 05:28:24;;;;;;;8.50;4.32;;;14.00;99.90;;;;;;5034757;28;20056;-65
2022/06/16 05:30:49;;;;;;;5.57;3.60;;;14.00;99.90;;;;;;5034803;28;20091;-65
2022/06/16 05:33:15;;;;;;;12.27;4.80;;;14.20;99.90;;;;;;5034786;28;20536;-65
2022/06/16 05:35:40;;;;;;;19.67;5.32;;;14.30;99.90;;;;;;5034466;28;20401;-65
2022/06/16 05:38:06;;;;;;;17.02;5.05;;;14.40;99.90;;;;;;5034306;28;20057;-65
2022/06/16 05:40:32;;;;;;;12.73;5.65;;;14.40;99.90;;;;;;5034922;28;20026;-65
2022/06/16 05:42:57;;;;;;;14.40;5.78;;;14.50;99.90;;;;;;5034898;28;20104;-65
2022/06/16 05:45:23;;;;;;;13.02;5.55;;;14.40;99.90;;;;;;5034690;28;20022;-66
2022/06/16 05:47:49;;;;;;;12.52;6.25;;;14.40;99.90;;;;;;5034593;28;20037;-65
2022/06/16 05:50:16;;;;;;;10.23;5.47;;;14.40;99.90;;;;;;5034664;28;20029;-65
2022/06/16 05:52:42;;;;;;;19.42;6.25;;;14.40;99.90;;;;;;5029392;28;20061;-64
2022/06/16 05:55:11;;;;;;;16.13;6.55;;;14.50;99.90;;;;;;5014645;28;20062;-64
2022/06/16 05:57:36;;;;;;;13.68;6.60;;;14.50;99.90;;;;;;5014616;28;20117;-64
2022/06/16 06:00:03;;;;;;;18.73;6.35;;;14.60;99.90;;;;;;5014567;28;20117;-65
2022/06/16 06:02:29;;;;;;;18.38;6.05;;;14.80;99.90;;;;;;5014736;28;20553;-65
2022/06/16 06:04:55;;;;;;;9.88;5.75;;;15.00;99.90;;;;;;5021752;28;20486;-65
2022/06/16 06:07:21;;;;;;;8.93;5.10;;;15.30;99.90;;;;;;5034168;28;20052;-65
2022/06/16 06:17:45;;;;;;;13.25;4.68;;;16.00;99.90;;;;;;5034032;28;20109;-65
2022/06/16 06:20:12;;;;;;;10.60;4.30;;;16.00;99.90;;;;;;5033971;28;20455;-65
2022/06/16 06:22:37;;;;;;;16.60;4.95;;;16.20;99.90;;;;;;5033892;28;20025;-65
2022/06/16 06:25:03;;;;;;;9.90;3.40;;;16.40;99.90;;;;;;5033772;28;20076;-65
2022/06/16 06:27:37;;;;;;;11.93;3.72;;;16.40;99.90;;;;;;5034101;28;20032;-65
2022/06/16 06:30:07;;;;;;;8.80;4.20;;;16.40;99.90;;;;;;5033905;28;20479;-65
2022/06/16 06:32:33;;;;;;;19.67;4.38;;;16.20;99.90;;;;;;5033725;28;20469;-65
2022/06/16 06:34:58;;;;;;;11.40;4.00;;;16.20;99.90;;;;;;5072143;23;20034;-71
2022/06/16 06:37:26;;;;;;;9.45;3.70;;;16.20;99.90;;;;;;5032885;28;20021;-71
2022/06/16 06:39:52;;;;;;;14.13;3.22;;;16.40;99.90;;;;;;5034246;28;20029;-71
2022/06/16 06:42:19;;;;;;;13.07;5.10;;;16.50;99.90;;;;;;5034043;28;20035;-71
2022/06/16 06:44:45;;;;;;;14.90;3.88;;;16.70;99.90;;;;;;5033904;28;20034;-71
2022/06/16 06:47:24;;;;;;;7.05;2.75;;;17.00;99.90;;;;;;5033976;28;20030;-72
2022/06/16 06:49:50;;;;;;;11.93;2.63;;;17.30;99.90;;;;;;5034490;28;20026;-71
2022/06/16 06:52:17;;;;;;;13.88;2.20;;;17.50;99.90;;;;;;5033886;28;20041;-71
2022/06/16 06:54:45;;;;;;;7.95;2.70;;;17.50;99.90;;;;;;5033985;28;20508;-71
2022/06/16 06:57:15;;;;;;;10.38;2.95;;;17.50;99.90;;;;;;5033991;28;20081;-71
2022/06/16 06:59:41;;;;;;;10.07;1.90;;;17.40;99.90;;;;;;5034334;28;20036;-71
2022/06/16 07:02:10;;;;;;;6.90;2.28;;;17.30;99.90;;;;;;5034143;28;20044;-72
2022/06/16 07:04:36;;;;;;;6.70;2.25;;;17.30;99.90;;;;;;5033768;28;20029;-72
2022/06/16 07:07:01;;;;;;;7.43;2.30;;;17.10;99.90;;;;;;5033956;28;20108;-71
2022/06/16 07:09:27;;;;;;;9.95;3.20;;;17.10;99.90;;;;;;5033915;28;20040;-72
2022/06/16 07:11:52;;;;;;;5.97;1.88;;;17.10;99.90;;;;;;5033836;28;20025;-71
2022/06/16 07:14:18;;;;;;;8.05;2.25;;;17.10;99.90;;;;;;5033662;28;20056;-71
2022/06/16 07:16:44;;;;;;;9.70;2.20;;;16.90;99.90;;;;;;5033808;28;20020;-71
2022/06/16 07:19:09;;;;;;;13.77;2.75;;;16.70;99.90;;;;;;5028973;28;20512;-70
2022/06/16 07:21:35;;;;;;;12.82;2.40;;;16.70;99.90;;;;;;5014003;28;20022;-70
2022/06/16 07:24:00;;;;;;;21.63;3.33;;;16.80;99.90;;;;;;5013985;28;20449;-71
2022/06/16 07:26:26;;;;;;;8.82;2.05;;;16.90;99.90;;;;;;5014178;28;20032;-71
2022/06/16 07:28:52;;;;;;;7.70;2.20;;;16.90;99.90;;;;;;5019855;28;20025;-70
2022/06/16 07:31:18;;;;;;;8.18;2.38;;;16.80;99.90;;;;;;5033512;28;20029;-70
2022/06/16 07:33:43;;;;;;;6.82;2.83;;;16.80;99.90;;;;;;5033626;28;20068;-70
2022/06/16 07:36:10;;;;;;;7.03;2.80;;;16.70;99.90;;;;;;5033408;28;20034;-70
2022/06/16 07:38:36;;;;;;;12.57;1.95;;;16.60;99.90;;;;;;5033568;28;20014;-71
2022/06/16 07:43:47;;;;;;;6.72;2.50;;;16.40;99.90;;;;;;5033923;28;20036;-70
2022/06/16 07:46:13;;;;;;;8.60;2.55;;;16.70;99.90;;;;;;5033448;28;20097;-71
2022/06/16 07:48:38;;;;;;;9.23;2.05;;;17.10;99.90;;;;;;5033699;28;20083;-70
2022/06/16 07:51:04;;;;;;;18.40;2.85;;;17.40;99.90;;;;;;5033699;28;20040;-71
2022/06/16 07:53:29;;;;;;;9.40;2.50;;;17.70;99.90;;;;;;5033782;28;20022;-70
2022/06/16 07:55:55;;;;;;;6.57;1.67;;;17.80;99.90;;;;;;5035340;28;20029;-70
2022/06/16 07:58:21;;;;;;;10.38;2.22;;;17.70;99.90;;;;;;5036261;28;20389;-70
2022/06/16 08:00:46;;;;;;;7.72;2.50;;;17.80;99.90;;;;;;5035589;28;20036;-70
2022/06/16 08:03:12;;;;;;;6.15;2.15;;;17.90;99.90;;;;;;5037553;28;20428;-70
2022/06/16 08:05:37;;;;;;;13.48;2.65;;;17.90;99.90;;;;;;5036835;28;20026;-70
2022/06/16 08:08:03;;;;;;;14.90;2.50;;;18.10;99.90;;;;;;5036840;28;20101;-70
2022/06/16 08:10:34;;;;;;;6.07;2.15;;;18.10;99.90;;;;;;5036374;28;20033;-69
2022/06/16 08:13:00;;;;;;;10.80;2.47;;;17.90;99.90;;;;;;5036463;28;20013;-69
2022/06/16 08:15:26;;;;;;;9.98;2.30;;;17.80;99.90;;;;;;5036355;28;20454;-71
2022/06/16 08:17:54;;;;;;;7.10;2.15;;;17.60;99.90;;;;;;5036431;28;20030;-71
2022/06/16 08:20:20;;;;;;;11.93;2.45;;;17.50;99.90;;;;;;5037282;28;20018;-70
2022/06/16 08:22:46;;;;;;;6.75;1.95;;;17.70;99.90;;;;;;5036511;28;20061;-70
2022/06/16 08:25:12;;;;;;;7.43;2.10;;;18.00;99.90;;;;;;5036356;28;20409;-70
2022/06/16 08:27:40;;;;;;;11.77;2.40;;;18.30;99.90;;;;;;5036517;28;20026;-69
2022/06/16 08:30:09;;;;;;;6.90;2.25;;;18.50;99.90;;;;;;5036342;28;20087;-70
2022/06/16 08:32:35;;;;;;;8.13;2.28;;;18.70;99.90;;;;;;5036623;28;20523;-70
2022/06/16 08:35:01;;;;;;;12.82;2.33;;;18.70;99.90;;;;;;5036237;28;20076;-69
2022/06/16 08:37:27;;;;;;;7.03;2.00;;;18.70;99.90;;;;;;5036167;28;20060;-70
2022/06/16 08:39:52;;;;;;;4.97;2.03;;;18.70;99.90;;;;;;5036255;28;20033;-70
2022/06/16 08:42:37;;;;;;;6.57;2.13;;;18.90;99.90;;;;;;5036048;28;20021;-70
2022/06/16 08:45:08;;;;;;;9.45;1.83;;;19.20;99.90;;;;;;5036241;28;20025;-70
2022/06/16 08:47:58;;;;;;;10.85;1.92;;;19.40;99.90;;;;;;5036256;28;20021;-70
2022/06/16 08:51:08;;;;;;;8.25;1.80;;;19.50;99.90;;;;;;5035963;28;20025;-70
2022/06/16 08:54:00;;;;;;;3.95;1.60;;;19.50;99.90;;;;;;4974995;28;20073;-70
2022/06/16 08:56:49;;;;;;;3.83;1.20;;;19.60;99.90;;;;;;5033343;28;20067;-70
2022/06/16 08:59:35;;;;;;;8.02;1.55;;;19.90;99.90;;;;;;5036140;28;20022;-69
2022/06/16 09:02:07;;;;;;;8.90;2.00;;;20.10;99.90;;;;;;5036313;28;20025;-70
2022/06/16 09:04:46;;;;;;;9.23;1.83;;;20.00;99.90;;;;;;5036184;28;20033;-70
2022/06/16 09:07:29;;;;;;;8.18;1.83;;;20.00;99.90;;;;;;5035895;28;20024;-70
2022/06/16 09:10:16;;;;;;;23.88;2.40;;;19.90;99.90;;;;;;5035549;28;20113;-70
2022/06/16 09:13:09;;;;;;;13.43;2.20;;;20.00;99.90;;;;;;5034209;28;20042;-70
2022/06/16 09:15:57;;;;;;;4.30;1.52;;;20.10;99.90;;;;;;5035410;28;20057;-70
2022/06/16 09:18:41;;;;;;;5.32;1.52;;;20.40;99.90;;;;;;5035236;28;20026;-70
2022/06/16 09:21:33;;;;;;;9.07;2.35;;;20.40;99.90;;;;;;5035183;28;20071;-70
2022/06/16 09:24:06;;;;;;;6.78;1.73;;;20.40;99.90;;;;;;5035386;28;20026;-70
2022/06/16 09:27:13;;;;;;;5.60;1.48;;;20.40;99.90;;;;;;5035339;28;20060;-70
2022/06/16 09:29:46;;;;;;;5.25;1.50;;;20.60;99.90;;;;;;4974221;28;20127;-70
2022/06/16 09:32:25;;;;;;;8.80;2.40;;;20.60;99.90;;;;;;5025048;28;20457;-70
2022/06/16 09:34:58;;;;;;;5.43;1.70;;;20.60;99.90;;;;;;5035112;28;20109;-70
2022/06/16 09:37:32;;;;;;;2.97;1.37;;;20.90;99.90;;;;;;5034852;28;20036;-70
2022/06/16 09:40:08;;;;;;;3.47;1.15;;;20.90;99.90;;;;;;5034918;28;20036;-70
2022/06/16 09:42:40;;;;;;;14.40;1.75;;;21.00;99.90;;;;;;5034798;28;20485;-69
2022/06/16 09:45:31;;;;;;;6.40;1.88;;;21.10;99.90;;;;;;5035024;28;20026;-69
2022/06/16 09:48:13;;;;;;;9.15;1.70;;;21.10;99.90;;;;;;5034888;28;20054;-69
2022/06/16 09:51:01;;;;;;;5.55;1.55;;;21.30;99.90;;;;;;5034826;28;20030;-70
2022/06/16 09:53:52;;;;;;;9.60;1.63;;;21.30;99.90;;;;;;5034586;28;20026;-70
2022/06/16 09:56:20;;;;;;;9.45;2.13;;;21.10;99.90;;;;;;5034660;28;20021;-70
2022/06/16 09:59:11;;;;;;;5.72;1.85;;;21.30;99.90;;;;;;5034753;28;20026;-70
2022/06/16 10:01:48;;;;;;;8.27;1.50;;;21.50;99.90;;;;;;5034732;28;20393;-70
2022/06/16 10:04:14;;;;;;;10.52;2.15;;;21.70;99.90;;;;;;5034470;28;20017;-71
2022/06/16 10:06:39;;;;;;;12.10;2.65;;;21.80;99.90;;;;;;5034361;28;20385;-70
2022/06/16 10:09:27;;;;;;;7.65;2.30;;;21.60;99.90;;;;;;5034414;28;20033;-70
2022/06/16 10:12:06;;;;;;;9.00;1.80;;;21.20;99.90;;;;;;5034724;28;20466;-70
2022/06/16 10:14:41;;;;;;;3.67;1.15;;;21.20;99.90;;;;;;5034400;28;20470;-70
2022/06/16 10:17:10;;;;;;;4.75;1.77;;;21.50;99.90;;;;;;5034776;28;20029;-70
2022/06/16 10:19:46;;;;;;;6.40;1.92;;;21.60;99.90;;;;;;5036757;28;20104;-70
2022/06/16 10:22:23;;;;;;;5.78;1.90;;;21.80;99.90;;;;;;5036413;28;20025;-70
2022/06/16 10:25:11;;;;;;;7.50;1.92;;;22.10;99.90;;;;;;5033938;28;20077;-70
2022/06/16 10:27:44;;;;;;;6.13;1.60;;;22.20;99.90;;;;;;5034362;28;20545;-70
2022/06/16 10:30:18;;;;;;;9.57;2.63;;;22.30;99.90;;;;;;5033827;28;20018;-69
2022/06/16 10:32:47;;;;;;;8.95;1.63;;;22.30;99.90;;;;;;5026147;28;20032;-70
2022/06/16 10:35:21;;;;;;;4.05;1.88;;;22.10;99.90;;;;;;5026458;28;20553;-70
2022/06/16 10:37:52;;;;;;;6.28;2.17;;;22.00;99.90;;;;;;5027083;28;20072;-70
2022/06/16 10:40:36;;;;;;;6.53;2.35;;;21.70;99.90;;;;;;5027145;28;20432;-71
2022/06/16 10:43:08;;;;;;;;;;;21.50;99.90;;;;;;5023300;28;20116;-70
2022/06/16 10:45:35;;;;;;;5.03;1.92;;;21.60;99.90;;;;;;5032217;28;19917;-70
2022/06/16 10:48:01;;;;;;;7.85;1.90;;;21.80;99.90;;;;;;5029321;28;20030;-70
2022/06/16 10:50:43;;;;;;;7.07;2.05;;;22.10;99.90;;;;;;5029747;28;20033;-70
2022/06/16 10:53:22;;;;;;;12.32;2.22;;;21.90;99.90;;;;;;5027184;28;20029;-70
2022/06/16 10:55:49;;;;;;;8.55;2.13;;;21.80;99.90;;;;;;5024541;28;20033;-70
2022/06/16 10:58:29;;;;;;;5.75;1.63;;;21.70;99.90;;;;;;5026885;28;20026;-70
2022/06/16 11:01:16;;;;;;;7.75;1.65;;;21.70;99.90;;;;;;5020345;28;20068;-70
2022/06/16 11:04:02;;;;;;;8.80;1.85;;;21.80;99.90;;;;;;5025826;28;20038;-70
2022/06/16 11:06:28;;;;;;;11.48;2.30;;;21.80;99.90;;;;;;5020973;28;20083;-70
2022/06/16 11:09:01;;;;;;;7.30;2.10;;;21.90;99.90;;;;;;5029573;28;20040;-70
2022/06/16 11:11:42;;;;;;;4.85;1.85;;;22.10;99.90;;;;;;5027544;28;20029;-71
2022/06/16 11:14:21;;;;;;;6.22;1.52;;;22.20;99.90;;;;;;5027195;28;20485;-71
2022/06/16 11:16:53;;;;;;;8.13;1.73;;;22.20;99.90;;;;;;5029433;28;20029;-70
2022/06/16 11:19:34;;;;;;;7.30;1.70;;;22.30;99.90;;;;;;5028964;28;20030;-71
2022/06/16 11:22:22;;;;;;;3.97;1.40;;;22.70;99.90;;;;;;5022261;28;20386;-70
2022/06/16 11:24:59;;;;;;;8.07;1.70;;;22.90;99.90;;;;;;5021212;28;20159;-70
2022/06/16 11:27:24;;;;;;;4.35;1.77;;;23.00;99.90;;;;;;5018280;28;20022;-70
2022/06/16 11:29:50;;;;;;;6.05;1.60;;;22.80;99.90;;;;;;5029308;28;20044;-70
2022/06/16 11:32:18;;;;;;;4.75;1.45;;;22.70;99.90;;;;;;5033889;28;20029;-70
2022/06/16 11:34:44;;;;;;;6.15;2.10;;;22.90;99.90;;;;;;5034056;28;20109;-70
2022/06/16 11:37:11;;;;;;;7.88;1.80;;;22.70;99.90;;;;;;5037592;28;20022;-70
2022/06/16 11:39:55;;;;;;;7.22;2.15;;;22.60;99.90;;;;;;5037628;28;20025;-70
2022/06/16 11:42:20;;;;;;;6.55;1.98;;;22.90;99.90;;;;;;5037494;28;20156;-70
2022/06/16 11:45:13;;;;;;;11.07;1.95;;;23.10;99.90;;;;;;5037370;28;20104;-69
2022/06/16 11:48:06;;;;;;;6.80;2.08;;;22.90;99.90;;;;;;5037339;28;20500;-70
2022/06/16 11:51:13;;;;;;;8.10;2.70;;;22.70;99.90;;;;;;5037366;28;20026;-70
2022/06/16 11:53:46;;;;;;;4.75;1.70;;;22.40;99.90;;;;;;5037730;28;20504;-70
2022/06/16 11:56:43;;;;;;;7.43;2.25;;;22.20;99.90;;;;;;5037585;28;20021;-70
2022/06/16 11:59:25;;;;;;;9.02;1.65;;;22.10;99.90;;;;;;5024053;28;20096;-70
2022/06/16 12:01:59;;;;;;;8.18;2.85;;;22.30;99.90;;;;;;5036889;28;20505;-70
2022/06/16 12:04:36;;;;;;;5.18;1.60;;;22.90;99.90;;;;;;5037306;28;20440;-70
2022/06/16 12:07:24;;;;;;;3.40;1.45;;;23.10;99.90;;;;;;5037151;28;20048;-70
2022/06/16 12:10:21;;;;;;;7.70;1.85;;;23.00;99.90;;;;;;5037574;28;20442;-71
2022/06/16 12:12:52;;;;;;;6.15;1.88;;;23.50;99.90;;;;;;5016214;28;20137;-70
2022/06/16 12:15:44;;;;;;;3.85;1.38;;;23.80;99.90;;;;;;5036837;28;20030;-70
2022/06/16 12:18:24;;;;;;;6.75;2.28;;;24.00;99.90;;;;;;5036642;28;20131;-70
2022/06/16 12:21:17;;;;;;;5.57;1.80;;;23.40;99.90;;;;;;5036894;28;20112;-70
2022/06/16 12:24:20;;;;;;;3.05;1.27;;;23.20;99.90;;;;;;5036605;28;20026;-70
2022/06/16 12:27:10;;;;;;;4.73;2.03;;;23.60;99.90;;;;;;5036666;28;20022;-70
2022/06/16 12:29:48;;;;;;;12.30;2.17;;;23.50;99.90;;;;;;5037032;28;20030;-70
2022/06/16 12:32:13;;;;;;;8.48;2.22;;;23.10;99.90;;;;;;5036631;28;20442;-70
2022/06/16 12:34:39;;;;;;;4.80;1.80;;;23.50;99.90;;;;;;5059787;22;20113;-67
2022/06/16 12:37:16;;;;;;;7.53;2.35;;;23.90;99.90;;;;;;5035987;28;20025;-64
2022/06/16 12:39:54;;;;;;;4.00;2.28;;;24.20;99.90;;;;;;5035941;28;20025;-64
2022/06/16 12:42:23;;;;;;;8.95;1.98;;;24.10;98.80;;;;;;5054393;28;20100;-64
2022/06/16 12:44:58;;;;;;;3.65;1.70;;;24.30;99.30;;;;;;5056034;28;20082;-64
2022/06/16 12:47:31;;;;;;;4.40;1.55;;;24.30;99.90;;;;;;5055354;28;20037;-64
2022/06/16 12:50:03;;;;;;;8.85;1.85;;;24.50;99.80;;;;;;5055874;28;20039;-64
2022/06/16 12:52:46;;;;;;;6.75;1.60;;;24.60;98.00;;;;;;5055876;28;20035;-65
2022/06/16 12:55:29;;;;;;;3.92;1.52;;;24.70;99.50;;;;;;5055528;28;20029;-65
2022/06/16 12:58:15;;;;;;;;;;;25.00;96.30;;;;;;5056012;28;20043;-65
2022/06/16 13:00:47;;;;;;;7.85;1.98;;;24.30;96.70;;;;;;5056250;28;20245;-65
2022/06/16 13:03:31;;;;;;;6.25;2.22;;;23.90;99.90;;;;;;5056281;28;20029;-64
2022/06/16 13:05:58;;;;;;;7.35;2.47;;;23.20;99.90;;;;;;5055397;28;20059;-65
2022/06/16 13:08:26;;;;;;;6.25;2.60;;;23.50;99.90;;;;;;5055468;28;20029;-65
2022/06/16 13:10:57;;;;;;;4.43;1.88;;;24.10;99.90;;;;;;5055204;28;20033;-65
2022/06/16 13:13:27;;;;;;;6.93;2.25;;;24.50;99.90;;;;;;5055210;28;20481;-65
2022/06/16 13:15:58;;;;;;;7.68;2.50;;;24.40;99.90;;;;;;5041405;28;20021;-64
2022/06/16 13:18:28;;;;;;;7.90;2.42;;;23.30;99.90;;;;;;5034744;28;20075;-65
2022/06/16 13:21:01;;;;;;;9.77;2.88;;;23.30;99.90;;;;;;5035150;28;20522;-66
2022/06/16 13:23:45;;;;;;;5.53;2.30;;;23.40;99.90;;;;;;5040951;28;20049;-65
2022/06/16 13:26:30;;;;;;;13.40;2.65;;;23.50;99.90;;;;;;5039903;28;20029;-66
2022/06/16 13:29:01;;;;;;;6.97;1.90;;;23.70;99.90;;;;;;5030355;28;20378;-66